sensor_id;sensor_type;location;lat;lon;timestamp;P1;durP1;ratioP1;P2;durP2;ratioP2
39018;SDS011;24786;51.984;5.872;2022-10-15T00:02:09;21.33;;;14.30;;
39018;SDS011;24786;51.984;5.872;2022-10-15T00:04:35;35.03;;;14.60;;
39018;SDS011;24786;51.984;5.872;2022-10-15T00:07:01;20.83;;;13.93;;
39018;SDS011;24786;51.984;5.872;2022-10-15T00:09:32;26.52;;;13.02;;
39018;SDS011;24786;51.984;5.872;2022-10-15T00:11:58;28.70;;;13.57;;
39018;SDS011;24786;51.984;5.872;2022-10-15T00:14:24;18.70;;;13.20;;
39018;SDS011;24786;51.984;5.872;2022-10-15T00:16:49;19.15;;;13.15;;
39018;SDS011;24786;51.984;5.872;2022-10-15T00:19:15;15.82;;;12.55;;
39018;SDS011;24786;51.984;5.872;2022-10-15T00:21:40;18.98;;;13.15;;
39018;SDS011;24786;51.984;5.872;2022-10-15T00:24:06;17.85;;;12.90;;
39018;SDS011;24786;51.984;5.872;2022-10-15T00:26:32;17.48;;;12.35;;
39018;SDS011;24786;51.984;5.872;2022-10-15T00:29:10;21.63;;;13.18;;
39018;SDS011;24786;51.984;5.872;2022-10-15T00:31:36;17.20;;;12.30;;
39018;SDS011;24786;51.984;5.872;2022-10-15T00:34:02;20.75;;;13.25;;
39018;SDS011;24786;51.984;5.872;2022-10-15T00:36:29;15.95;;;12.45;;
39018;SDS011;24786;51.984;5.872;2022-10-15T00:39:09;19.58;;;13.60;;
39018;SDS011;24786;51.984;5.872;2022-10-15T00:41:36;19.35;;;11.77;;
39018;SDS011;24786;51.984;5.872;2022-10-15T00:52:22;16.60;;;12.50;;
39018;SDS011;24786;51.984;5.872;2022-10-15T00:55:04;15.68;;;12.23;;
39018;SDS011;24786;51.984;5.872;2022-10-15T00:57:37;23.27;;;12.73;;
39018;SDS011;24786;51.984;5.872;2022-10-15T01:00:07;17.67;;;13.02;;
39018;SDS011;24786;51.984;5.872;2022-10-15T01:02:44;19.65;;;12.85;;
39018;SDS011;24786;51.984;5.872;2022-10-15T01:05:11;21.63;;;13.57;;
39018;SDS011;24786;51.984;5.872;2022-10-15T01:07:37;17.38;;;12.90;;
39018;SDS011;24786;51.984;5.872;2022-10-15T01:10:03;20.30;;;13.05;;
39018;SDS011;24786;51.984;5.872;2022-10-15T01:18:45;20.35;;;13.57;;
39018;SDS011;24786;51.984;5.872;2022-10-15T01:21:30;18.48;;;12.65;;
39018;SDS011;24786;51.984;5.872;2022-10-15T01:24:14;19.85;;;13.30;;
39018;SDS011;24786;51.984;5.872;2022-10-15T01:27:21;19.38;;;13.40;;
39018;SDS011;24786;51.984;5.872;2022-10-15T01:32:37;20.20;;;13.05;;
39018;SDS011;24786;51.984;5.872;2022-10-15T01:35:27;24.42;;;14.65;;
39018;SDS011;24786;51.984;5.872;2022-10-15T01:40:56;20.95;;;14.40;;
39018;SDS011;24786;51.984;5.872;2022-10-15T01:43:31;23.50;;;15.38;;
39018;SDS011;24786;51.984;5.872;2022-10-15T01:46:12;22.02;;;14.57;;
39018;SDS011;24786;51.984;5.872;2022-10-15T01:51:11;25.88;;;16.10;;
39018;SDS011;24786;51.984;5.872;2022-10-15T01:53:49;26.10;;;16.05;;
39018;SDS011;24786;51.984;5.872;2022-10-15T01:56:19;27.08;;;16.25;;
39018;SDS011;24786;51.984;5.872;2022-10-15T01:58:46;23.90;;;15.57;;
39018;SDS011;24786;51.984;5.872;2022-10-15T02:01:14;32.20;;;17.08;;
39018;SDS011;24786;51.984;5.872;2022-10-15T02:03:43;29.05;;;17.00;;
39018;SDS011;24786;51.984;5.872;2022-10-15T02:11:39;31.58;;;17.70;;
39018;SDS011;24786;51.984;5.872;2022-10-15T02:14:23;29.30;;;18.48;;
39018;SDS011;24786;51.984;5.872;2022-10-15T02:16:56;28.35;;;17.15;;
39018;SDS011;24786;51.984;5.872;2022-10-15T02:22:17;31.92;;;18.58;;
39018;SDS011;24786;51.984;5.872;2022-10-15T02:25:08;34.88;;;18.85;;
39018;SDS011;24786;51.984;5.872;2022-10-15T02:27:39;31.30;;;18.80;;
39018;SDS011;24786;51.984;5.872;2022-10-15T02:30:06;32.45;;;19.38;;
39018;SDS011;24786;51.984;5.872;2022-10-15T02:32:34;28.92;;;17.35;;
39018;SDS011;24786;51.984;5.872;2022-10-15T02:35:02;34.13;;;20.27;;
39018;SDS011;24786;51.984;5.872;2022-10-15T02:37:31;37.22;;;19.63;;
39018;SDS011;24786;51.984;5.872;2022-10-15T02:39:59;33.17;;;19.60;;
39018;SDS011;24786;51.984;5.872;2022-10-15T02:42:24;35.95;;;21.45;;
39018;SDS011;24786;51.984;5.872;2022-10-15T02:44:50;34.05;;;19.88;;
39018;SDS011;24786;51.984;5.872;2022-10-15T02:47:16;35.95;;;20.60;;
39018;SDS011;24786;51.984;5.872;2022-10-15T02:49:41;31.83;;;19.55;;
39018;SDS011;24786;51.984;5.872;2022-10-15T02:52:07;33.13;;;19.48;;
39018;SDS011;24786;51.984;5.872;2022-10-15T02:54:33;32.88;;;19.90;;
39018;SDS011;24786;51.984;5.872;2022-10-15T02:56:58;34.85;;;19.70;;
39018;SDS011;24786;51.984;5.872;2022-10-15T02:59:24;32.47;;;19.83;;
39018;SDS011;24786;51.984;5.872;2022-10-15T03:01:50;31.98;;;17.55;;
39018;SDS011;24786;51.984;5.872;2022-10-15T03:04:15;33.35;;;18.98;;
39018;SDS011;24786;51.984;5.872;2022-10-15T03:06:41;36.88;;;19.30;;
39018;SDS011;24786;51.984;5.872;2022-10-15T03:09:09;39.67;;;20.98;;
39018;SDS011;24786;51.984;5.872;2022-10-15T03:11:36;37.67;;;20.33;;
39018;SDS011;24786;51.984;5.872;2022-10-15T03:14:02;46.42;;;22.88;;
39018;SDS011;24786;51.984;5.872;2022-10-15T03:16:28;36.75;;;19.92;;
39018;SDS011;24786;51.984;5.872;2022-10-15T03:18:53;36.05;;;19.38;;
39018;SDS011;24786;51.984;5.872;2022-10-15T03:21:19;31.35;;;18.10;;
39018;SDS011;24786;51.984;5.872;2022-10-15T03:23:44;47.15;;;24.48;;
39018;SDS011;24786;51.984;5.872;2022-10-15T03:26:10;37.63;;;20.88;;
39018;SDS011;24786;51.984;5.872;2022-10-15T03:28:36;40.05;;;21.42;;
39018;SDS011;24786;51.984;5.872;2022-10-15T03:31:01;43.15;;;23.23;;
39018;SDS011;24786;51.984;5.872;2022-10-15T03:33:27;36.38;;;21.20;;
39018;SDS011;24786;51.984;5.872;2022-10-15T03:35:52;32.00;;;19.73;;
39018;SDS011;24786;51.984;5.872;2022-10-15T03:38:18;35.92;;;19.05;;
39018;SDS011;24786;51.984;5.872;2022-10-15T03:40:44;37.05;;;20.60;;
39018;SDS011;24786;51.984;5.872;2022-10-15T03:43:09;32.40;;;19.92;;
39018;SDS011;24786;51.984;5.872;2022-10-15T03:45:35;37.42;;;20.90;;
39018;SDS011;24786;51.984;5.872;2022-10-15T03:48:01;37.13;;;20.42;;
39018;SDS011;24786;51.984;5.872;2022-10-15T03:50:26;39.60;;;21.23;;
39018;SDS011;24786;51.984;5.872;2022-10-15T03:52:52;40.13;;;22.13;;
39018;SDS011;24786;51.984;5.872;2022-10-15T03:55:30;39.47;;;21.92;;
39018;SDS011;24786;51.984;5.872;2022-10-15T03:57:55;36.97;;;21.58;;
39018;SDS011;24786;51.984;5.872;2022-10-15T04:00:21;46.90;;;22.60;;
39018;SDS011;24786;51.984;5.872;2022-10-15T04:02:47;38.45;;;21.52;;
39018;SDS011;24786;51.984;5.872;2022-10-15T04:05:12;43.33;;;22.55;;
39018;SDS011;24786;51.984;5.872;2022-10-15T04:07:38;40.75;;;20.90;;
39018;SDS011;24786;51.984;5.872;2022-10-15T04:10:03;34.30;;;19.40;;
39018;SDS011;24786;51.984;5.872;2022-10-15T04:12:29;33.40;;;19.10;;
39018;SDS011;24786;51.984;5.872;2022-10-15T04:14:55;32.85;;;17.98;;
39018;SDS011;24786;51.984;5.872;2022-10-15T04:17:20;30.55;;;17.85;;
39018;SDS011;24786;51.984;5.872;2022-10-15T04:19:46;28.75;;;18.33;;
39018;SDS011;24786;51.984;5.872;2022-10-15T04:22:11;35.97;;;20.85;;
39018;SDS011;24786;51.984;5.872;2022-10-15T04:24:37;29.27;;;16.52;;
39018;SDS011;24786;51.984;5.872;2022-10-15T04:27:02;33.88;;;18.95;;
39018;SDS011;24786;51.984;5.872;2022-10-15T04:29:28;35.92;;;19.95;;
39018;SDS011;24786;51.984;5.872;2022-10-15T04:31:54;37.63;;;21.10;;
39018;SDS011;24786;51.984;5.872;2022-10-15T04:34:19;39.42;;;21.33;;
39018;SDS011;24786;51.984;5.872;2022-10-15T04:36:45;35.35;;;20.00;;
39018;SDS011;24786;51.984;5.872;2022-10-15T04:39:10;34.85;;;20.38;;
39018;SDS011;24786;51.984;5.872;2022-10-15T04:41:36;37.28;;;21.33;;
39018;SDS011;24786;51.984;5.872;2022-10-15T04:44:01;39.17;;;21.40;;
39018;SDS011;24786;51.984;5.872;2022-10-15T04:46:27;34.88;;;18.45;;
39018;SDS011;24786;51.984;5.872;2022-10-15T04:48:52;33.83;;;20.75;;
39018;SDS011;24786;51.984;5.872;2022-10-15T04:51:22;31.27;;;19.88;;
39018;SDS011;24786;51.984;5.872;2022-10-15T04:53:49;32.00;;;17.42;;
39018;SDS011;24786;51.984;5.872;2022-10-15T04:56:15;31.70;;;19.23;;
39018;SDS011;24786;51.984;5.872;2022-10-15T04:58:44;34.70;;;18.88;;
39018;SDS011;24786;51.984;5.872;2022-10-15T05:01:12;33.55;;;17.73;;
39018;SDS011;24786;51.984;5.872;2022-10-15T05:03:40;33.22;;;19.27;;
39018;SDS011;24786;51.984;5.872;2022-10-15T05:06:08;32.30;;;20.33;;
39018;SDS011;24786;51.984;5.872;2022-10-15T05:08:35;34.53;;;20.23;;
39018;SDS011;24786;51.984;5.872;2022-10-15T05:11:05;34.92;;;20.95;;
39018;SDS011;24786;51.984;5.872;2022-10-15T05:13:33;35.38;;;19.50;;
39018;SDS011;24786;51.984;5.872;2022-10-15T05:16:15;39.50;;;21.98;;
39018;SDS011;24786;51.984;5.872;2022-10-15T05:18:43;37.28;;;19.88;;
39018;SDS011;24786;51.984;5.872;2022-10-15T05:21:10;33.08;;;19.77;;
39018;SDS011;24786;51.984;5.872;2022-10-15T05:23:37;29.45;;;17.85;;
39018;SDS011;24786;51.984;5.872;2022-10-15T05:26:04;39.45;;;21.23;;
39018;SDS011;24786;51.984;5.872;2022-10-15T05:28:35;36.63;;;20.15;;
39018;SDS011;24786;51.984;5.872;2022-10-15T05:31:04;39.05;;;21.35;;
39018;SDS011;24786;51.984;5.872;2022-10-15T05:33:35;36.00;;;21.35;;
39018;SDS011;24786;51.984;5.872;2022-10-15T05:36:07;40.05;;;22.48;;
39018;SDS011;24786;51.984;5.872;2022-10-15T05:38:38;40.42;;;22.92;;
39018;SDS011;24786;51.984;5.872;2022-10-15T05:41:05;38.20;;;22.00;;
39018;SDS011;24786;51.984;5.872;2022-10-15T05:43:31;41.75;;;23.48;;
39018;SDS011;24786;51.984;5.872;2022-10-15T05:45:56;38.33;;;21.33;;
39018;SDS011;24786;51.984;5.872;2022-10-15T05:48:22;37.65;;;22.50;;
39018;SDS011;24786;51.984;5.872;2022-10-15T05:50:48;36.70;;;23.00;;
39018;SDS011;24786;51.984;5.872;2022-10-15T05:53:13;35.72;;;21.98;;
39018;SDS011;24786;51.984;5.872;2022-10-15T05:55:39;35.97;;;21.95;;
39018;SDS011;24786;51.984;5.872;2022-10-15T05:58:05;37.65;;;22.67;;
39018;SDS011;24786;51.984;5.872;2022-10-15T06:00:31;37.42;;;22.17;;
39018;SDS011;24786;51.984;5.872;2022-10-15T06:02:57;38.55;;;23.25;;
39018;SDS011;24786;51.984;5.872;2022-10-15T06:05:23;39.10;;;22.92;;
39018;SDS011;24786;51.984;5.872;2022-10-15T06:07:48;39.95;;;23.73;;
39018;SDS011;24786;51.984;5.872;2022-10-15T06:10:14;49.08;;;24.92;;
39018;SDS011;24786;51.984;5.872;2022-10-15T06:12:40;40.17;;;22.67;;
39018;SDS011;24786;51.984;5.872;2022-10-15T06:15:06;46.30;;;24.38;;
39018;SDS011;24786;51.984;5.872;2022-10-15T06:17:32;45.22;;;24.45;;
39018;SDS011;24786;51.984;5.872;2022-10-15T06:19:58;41.72;;;23.90;;
39018;SDS011;24786;51.984;5.872;2022-10-15T06:22:24;45.38;;;24.55;;
39018;SDS011;24786;51.984;5.872;2022-10-15T06:24:49;45.60;;;23.17;;
39018;SDS011;24786;51.984;5.872;2022-10-15T06:27:15;42.90;;;22.80;;
39018;SDS011;24786;51.984;5.872;2022-10-15T06:29:40;44.67;;;22.70;;
39018;SDS011;24786;51.984;5.872;2022-10-15T06:32:09;38.95;;;21.80;;
39018;SDS011;24786;51.984;5.872;2022-10-15T06:34:35;43.95;;;22.92;;
39018;SDS011;24786;51.984;5.872;2022-10-15T06:37:01;40.50;;;22.17;;
39018;SDS011;24786;51.984;5.872;2022-10-15T06:39:27;40.85;;;21.27;;
39018;SDS011;24786;51.984;5.872;2022-10-15T06:41:52;43.42;;;22.20;;
39018;SDS011;24786;51.984;5.872;2022-10-15T06:44:18;46.13;;;22.17;;
39018;SDS011;24786;51.984;5.872;2022-10-15T06:46:44;42.60;;;22.20;;
39018;SDS011;24786;51.984;5.872;2022-10-15T06:49:09;46.85;;;22.35;;
39018;SDS011;24786;51.984;5.872;2022-10-15T06:51:35;42.70;;;21.38;;
39018;SDS011;24786;51.984;5.872;2022-10-15T06:54:01;42.88;;;19.77;;
39018;SDS011;24786;51.984;5.872;2022-10-15T06:56:27;41.47;;;20.30;;
39018;SDS011;24786;51.984;5.872;2022-10-15T06:58:53;38.42;;;20.45;;
39018;SDS011;24786;51.984;5.872;2022-10-15T07:01:19;36.40;;;20.75;;
39018;SDS011;24786;51.984;5.872;2022-10-15T07:03:47;40.30;;;19.55;;
39018;SDS011;24786;51.984;5.872;2022-10-15T07:06:13;39.63;;;19.90;;
39018;SDS011;24786;51.984;5.872;2022-10-15T07:08:39;39.65;;;19.95;;
39018;SDS011;24786;51.984;5.872;2022-10-15T07:11:05;44.05;;;21.13;;
39018;SDS011;24786;51.984;5.872;2022-10-15T07:13:33;38.70;;;19.00;;
39018;SDS011;24786;51.984;5.872;2022-10-15T07:16:02;35.80;;;18.33;;
39018;SDS011;24786;51.984;5.872;2022-10-15T07:18:32;42.80;;;20.30;;
39018;SDS011;24786;51.984;5.872;2022-10-15T07:20:59;44.97;;;20.88;;
39018;SDS011;24786;51.984;5.872;2022-10-15T07:23:25;38.00;;;19.17;;
39018;SDS011;24786;51.984;5.872;2022-10-15T07:25:51;36.42;;;17.48;;
39018;SDS011;24786;51.984;5.872;2022-10-15T07:28:17;36.78;;;18.23;;
39018;SDS011;24786;51.984;5.872;2022-10-15T07:30:42;33.95;;;17.77;;
39018;SDS011;24786;51.984;5.872;2022-10-15T07:33:08;34.15;;;18.05;;
39018;SDS011;24786;51.984;5.872;2022-10-15T07:35:35;34.20;;;17.27;;
39018;SDS011;24786;51.984;5.872;2022-10-15T07:38:02;35.78;;;17.50;;
39018;SDS011;24786;51.984;5.872;2022-10-15T07:40:28;32.97;;;17.15;;
39018;SDS011;24786;51.984;5.872;2022-10-15T07:42:54;31.45;;;15.82;;
39018;SDS011;24786;51.984;5.872;2022-10-15T07:45:20;33.70;;;17.52;;
39018;SDS011;24786;51.984;5.872;2022-10-15T07:47:47;30.58;;;16.83;;
39018;SDS011;24786;51.984;5.872;2022-10-15T07:50:13;34.88;;;18.02;;
39018;SDS011;24786;51.984;5.872;2022-10-15T07:52:39;32.75;;;16.67;;
39018;SDS011;24786;51.984;5.872;2022-10-15T07:55:04;33.53;;;16.48;;
39018;SDS011;24786;51.984;5.872;2022-10-15T07:57:30;34.53;;;16.33;;
39018;SDS011;24786;51.984;5.872;2022-10-15T07:59:56;36.78;;;18.10;;
39018;SDS011;24786;51.984;5.872;2022-10-15T08:02:21;45.47;;;18.92;;
39018;SDS011;24786;51.984;5.872;2022-10-15T08:04:47;38.33;;;19.23;;
39018;SDS011;24786;51.984;5.872;2022-10-15T08:07:12;40.00;;;20.33;;
39018;SDS011;24786;51.984;5.872;2022-10-15T08:09:38;44.42;;;19.92;;
39018;SDS011;24786;51.984;5.872;2022-10-15T08:12:04;38.55;;;18.77;;
39018;SDS011;24786;51.984;5.872;2022-10-15T08:14:31;42.95;;;19.88;;
39018;SDS011;24786;51.984;5.872;2022-10-15T08:16:57;36.05;;;18.38;;
39018;SDS011;24786;51.984;5.872;2022-10-15T08:19:23;43.05;;;19.35;;
39018;SDS011;24786;51.984;5.872;2022-10-15T08:21:48;39.67;;;19.27;;
39018;SDS011;24786;51.984;5.872;2022-10-15T08:24:14;40.28;;;19.50;;
39018;SDS011;24786;51.984;5.872;2022-10-15T08:26:40;30.90;;;16.23;;
39018;SDS011;24786;51.984;5.872;2022-10-15T08:29:09;34.80;;;17.48;;
39018;SDS011;24786;51.984;5.872;2022-10-15T08:31:38;35.58;;;19.10;;
39018;SDS011;24786;51.984;5.872;2022-10-15T08:36:30;31.50;;;15.52;;
39018;SDS011;24786;51.984;5.872;2022-10-15T08:38:55;31.88;;;15.85;;
39018;SDS011;24786;51.984;5.872;2022-10-15T08:43:47;33.88;;;16.55;;
39018;SDS011;24786;51.984;5.872;2022-10-15T08:46:15;29.50;;;15.85;;
39018;SDS011;24786;51.984;5.872;2022-10-15T08:48:50;32.00;;;17.40;;
39018;SDS011;24786;51.984;5.872;2022-10-15T08:51:19;27.98;;;15.00;;
39018;SDS011;24786;51.984;5.872;2022-10-15T08:53:48;31.08;;;17.17;;
39018;SDS011;24786;51.984;5.872;2022-10-15T08:56:18;25.95;;;15.35;;
39018;SDS011;24786;51.984;5.872;2022-10-15T09:10:03;23.07;;;13.20;;
39018;SDS011;24786;51.984;5.872;2022-10-15T09:13:03;25.50;;;14.05;;
39018;SDS011;24786;51.984;5.872;2022-10-15T09:15:33;24.70;;;13.00;;
39018;SDS011;24786;51.984;5.872;2022-10-15T09:18:05;29.00;;;14.30;;
39018;SDS011;24786;51.984;5.872;2022-10-15T09:20:41;25.20;;;14.05;;
39018;SDS011;24786;51.984;5.872;2022-10-15T09:23:17;26.38;;;14.48;;
39018;SDS011;24786;51.984;5.872;2022-10-15T09:25:48;24.10;;;14.38;;
39018;SDS011;24786;51.984;5.872;2022-10-15T09:28:21;25.48;;;13.45;;
39018;SDS011;24786;51.984;5.872;2022-10-15T09:30:54;23.17;;;13.50;;
39018;SDS011;24786;51.984;5.872;2022-10-15T09:33:29;22.77;;;12.70;;
39018;SDS011;24786;51.984;5.872;2022-10-15T09:36:35;22.05;;;13.00;;
39018;SDS011;24786;51.984;5.872;2022-10-15T09:39:29;24.00;;;13.32;;
39018;SDS011;24786;51.984;5.872;2022-10-15T09:42:14;22.10;;;12.38;;
39018;SDS011;24786;51.984;5.872;2022-10-15T09:44:48;22.73;;;11.18;;
39018;SDS011;24786;51.984;5.872;2022-10-15T09:49:46;19.42;;;11.70;;
39018;SDS011;24786;51.984;5.872;2022-10-15T09:52:15;17.40;;;11.00;;
39018;SDS011;24786;51.984;5.872;2022-10-15T09:57:37;17.67;;;10.93;;
39018;SDS011;24786;51.984;5.872;2022-10-15T10:00:06;17.65;;;11.32;;
39018;SDS011;24786;51.984;5.872;2022-10-15T10:02:34;18.35;;;9.57;;
39018;SDS011;24786;51.984;5.872;2022-10-15T10:05:19;19.48;;;10.25;;
39018;SDS011;24786;51.984;5.872;2022-10-15T10:08:05;18.67;;;10.00;;
39018;SDS011;24786;51.984;5.872;2022-10-15T10:10:42;15.48;;;9.45;;
39018;SDS011;24786;51.984;5.872;2022-10-15T10:13:19;15.80;;;9.73;;
39018;SDS011;24786;51.984;5.872;2022-10-15T10:15:48;21.23;;;10.45;;
39018;SDS011;24786;51.984;5.872;2022-10-15T10:18:20;16.08;;;9.40;;
39018;SDS011;24786;51.984;5.872;2022-10-15T10:20:51;16.67;;;10.43;;
39018;SDS011;24786;51.984;5.872;2022-10-15T10:23:29;14.82;;;9.70;;
39018;SDS011;24786;51.984;5.872;2022-10-15T10:25:58;15.32;;;9.43;;
39018;SDS011;24786;51.984;5.872;2022-10-15T10:28:32;15.75;;;9.25;;
39018;SDS011;24786;51.984;5.872;2022-10-15T10:31:06;18.40;;;10.10;;
39018;SDS011;24786;51.984;5.872;2022-10-15T10:36:32;15.70;;;9.50;;
39018;SDS011;24786;51.984;5.872;2022-10-15T10:39:00;15.50;;;8.48;;
39018;SDS011;24786;51.984;5.872;2022-10-15T10:41:48;16.52;;;9.55;;
39018;SDS011;24786;51.984;5.872;2022-10-15T10:47:25;14.63;;;8.75;;
39018;SDS011;24786;51.984;5.872;2022-10-15T10:49:54;15.98;;;8.88;;
39018;SDS011;24786;51.984;5.872;2022-10-15T10:52:28;14.07;;;9.52;;
39018;SDS011;24786;51.984;5.872;2022-10-15T10:55:21;13.52;;;8.48;;
39018;SDS011;24786;51.984;5.872;2022-10-15T10:57:54;14.07;;;9.35;;
39018;SDS011;24786;51.984;5.872;2022-10-15T11:05:52;17.73;;;10.25;;
39018;SDS011;24786;51.984;5.872;2022-10-15T11:08:40;13.27;;;8.20;;
39018;SDS011;24786;51.984;5.872;2022-10-15T11:11:42;17.08;;;10.32;;
39018;SDS011;24786;51.984;5.872;2022-10-15T11:14:26;21.85;;;10.45;;
39018;SDS011;24786;51.984;5.872;2022-10-15T11:22:14;17.35;;;9.65;;
39018;SDS011;24786;51.984;5.872;2022-10-15T11:41:56;10.82;;;6.90;;
39018;SDS011;24786;51.984;5.872;2022-10-15T11:47:25;10.18;;;6.57;;
39018;SDS011;24786;51.984;5.872;2022-10-15T11:55:49;9.60;;;6.55;;
39018;SDS011;24786;51.984;5.872;2022-10-15T11:58:29;11.45;;;6.78;;
39018;SDS011;24786;51.984;5.872;2022-10-15T12:01:00;8.68;;;6.20;;
39018;SDS011;24786;51.984;5.872;2022-10-15T12:03:33;10.02;;;6.88;;
39018;SDS011;24786;51.984;5.872;2022-10-15T12:06:15;8.77;;;6.85;;
39018;SDS011;24786;51.984;5.872;2022-10-15T12:08:55;7.65;;;5.60;;
39018;SDS011;24786;51.984;5.872;2022-10-15T12:20:11;9.32;;;5.53;;
39018;SDS011;24786;51.984;5.872;2022-10-15T12:22:59;8.10;;;5.47;;
39018;SDS011;24786;51.984;5.872;2022-10-15T12:30:52;9.80;;;6.00;;
39018;SDS011;24786;51.984;5.872;2022-10-15T12:36:57;8.23;;;6.07;;
39018;SDS011;24786;51.984;5.872;2022-10-15T12:39:36;9.27;;;6.43;;
39018;SDS011;24786;51.984;5.872;2022-10-15T12:42:15;6.47;;;5.78;;
39018;SDS011;24786;51.984;5.872;2022-10-15T12:50:37;8.50;;;5.38;;
39018;SDS011;24786;51.984;5.872;2022-10-15T12:53:04;7.55;;;5.90;;
39018;SDS011;24786;51.984;5.872;2022-10-15T13:05:06;6.97;;;6.07;;
39018;SDS011;24786;51.984;5.872;2022-10-15T13:08:04;6.63;;;5.93;;
39018;SDS011;24786;51.984;5.872;2022-10-15T13:11:02;7.75;;;6.13;;
39018;SDS011;24786;51.984;5.872;2022-10-15T13:13:33;6.93;;;6.22;;
39018;SDS011;24786;51.984;5.872;2022-10-15T13:16:10;7.32;;;5.93;;
39018;SDS011;24786;51.984;5.872;2022-10-15T13:18:38;6.45;;;5.55;;
39018;SDS011;24786;51.984;5.872;2022-10-15T13:24:40;6.85;;;5.75;;
39018;SDS011;24786;51.984;5.872;2022-10-15T13:30:15;8.90;;;4.90;;
39018;SDS011;24786;51.984;5.872;2022-10-15T13:32:48;7.28;;;5.40;;
39018;SDS011;24786;51.984;5.872;2022-10-15T13:35:30;5.95;;;5.20;;
39018;SDS011;24786;51.984;5.872;2022-10-15T13:38:21;6.53;;;5.00;;
39018;SDS011;24786;51.984;5.872;2022-10-15T13:40:49;6.72;;;5.63;;
39018;SDS011;24786;51.984;5.872;2022-10-15T13:43:35;6.13;;;5.55;;
39018;SDS011;24786;51.984;5.872;2022-10-15T13:46:16;7.43;;;5.78;;
39018;SDS011;24786;51.984;5.872;2022-10-15T13:48:42;7.07;;;6.13;;
39018;SDS011;24786;51.984;5.872;2022-10-15T13:51:14;7.50;;;6.43;;
39018;SDS011;24786;51.984;5.872;2022-10-15T13:53:48;7.50;;;6.18;;
39018;SDS011;24786;51.984;5.872;2022-10-15T13:56:25;11.93;;;6.18;;
39018;SDS011;24786;51.984;5.872;2022-10-15T13:59:01;6.60;;;5.95;;
39018;SDS011;24786;51.984;5.872;2022-10-15T14:01:47;8.20;;;5.95;;
39018;SDS011;24786;51.984;5.872;2022-10-15T14:04:29;8.73;;;6.50;;
39018;SDS011;24786;51.984;5.872;2022-10-15T14:07:15;8.15;;;6.32;;
39018;SDS011;24786;51.984;5.872;2022-10-15T14:10:04;7.65;;;6.53;;
39018;SDS011;24786;51.984;5.872;2022-10-15T14:12:47;7.25;;;6.07;;
39018;SDS011;24786;51.984;5.872;2022-10-15T14:18:11;9.13;;;6.63;;
39018;SDS011;24786;51.984;5.872;2022-10-15T14:23:33;8.43;;;6.40;;
39018;SDS011;24786;51.984;5.872;2022-10-15T14:26:05;8.52;;;6.85;;
39018;SDS011;24786;51.984;5.872;2022-10-15T14:28:31;7.60;;;6.43;;
39018;SDS011;24786;51.984;5.872;2022-10-15T14:30:58;8.45;;;7.20;;
39018;SDS011;24786;51.984;5.872;2022-10-15T14:38:38;7.70;;;6.30;;
39018;SDS011;24786;51.984;5.872;2022-10-15T14:41:18;7.75;;;6.55;;
39018;SDS011;24786;51.984;5.872;2022-10-15T14:43:45;8.18;;;6.53;;
39018;SDS011;24786;51.984;5.872;2022-10-15T14:46:23;8.65;;;6.40;;
39018;SDS011;24786;51.984;5.872;2022-10-15T14:48:48;6.63;;;5.82;;
39018;SDS011;24786;51.984;5.872;2022-10-15T14:51:19;7.32;;;6.47;;
39018;SDS011;24786;51.984;5.872;2022-10-15T14:53:48;6.70;;;5.93;;
39018;SDS011;24786;51.984;5.872;2022-10-15T14:56:16;9.65;;;5.90;;
39018;SDS011;24786;51.984;5.872;2022-10-15T14:58:49;8.48;;;5.47;;
39018;SDS011;24786;51.984;5.872;2022-10-15T15:01:20;8.05;;;6.05;;
39018;SDS011;24786;51.984;5.872;2022-10-15T15:03:48;6.30;;;5.43;;
39018;SDS011;24786;51.984;5.872;2022-10-15T15:06:15;7.20;;;6.00;;
39018;SDS011;24786;51.984;5.872;2022-10-15T15:08:41;7.68;;;5.65;;
39018;SDS011;24786;51.984;5.872;2022-10-15T15:11:09;6.30;;;5.47;;
39018;SDS011;24786;51.984;5.872;2022-10-15T15:13:39;7.93;;;5.40;;
39018;SDS011;24786;51.984;5.872;2022-10-15T15:16:13;8.05;;;5.55;;
39018;SDS011;24786;51.984;5.872;2022-10-15T15:18:40;7.93;;;5.40;;
39018;SDS011;24786;51.984;5.872;2022-10-15T15:21:09;6.22;;;5.10;;
39018;SDS011;24786;51.984;5.872;2022-10-15T15:26:02;9.75;;;5.60;;
39018;SDS011;24786;51.984;5.872;2022-10-15T15:28:28;7.55;;;4.60;;
39018;SDS011;24786;51.984;5.872;2022-10-15T15:30:57;7.65;;;4.45;;
39018;SDS011;24786;51.984;5.872;2022-10-15T15:33:26;4.07;;;3.67;;
39018;SDS011;24786;51.984;5.872;2022-10-15T15:36:02;5.15;;;3.83;;
39018;SDS011;24786;51.984;5.872;2022-10-15T15:38:31;3.88;;;3.47;;
39018;SDS011;24786;51.984;5.872;2022-10-15T15:41:02;4.68;;;3.40;;
39018;SDS011;24786;51.984;5.872;2022-10-15T15:43:34;4.47;;;3.83;;
39018;SDS011;24786;51.984;5.872;2022-10-15T15:46:00;6.18;;;3.22;;
39018;SDS011;24786;51.984;5.872;2022-10-15T15:48:25;3.55;;;2.90;;
39018;SDS011;24786;51.984;5.872;2022-10-15T15:50:51;5.72;;;3.33;;
39018;SDS011;24786;51.984;5.872;2022-10-15T15:53:17;3.45;;;2.63;;
39018;SDS011;24786;51.984;5.872;2022-10-15T15:55:43;4.43;;;3.05;;
39018;SDS011;24786;51.984;5.872;2022-10-15T15:58:08;4.63;;;2.90;;
39018;SDS011;24786;51.984;5.872;2022-10-15T16:00:34;3.85;;;3.03;;
39018;SDS011;24786;51.984;5.872;2022-10-15T16:03:00;3.13;;;2.83;;
39018;SDS011;24786;51.984;5.872;2022-10-15T16:05:25;5.35;;;3.03;;
39018;SDS011;24786;51.984;5.872;2022-10-15T16:07:51;5.05;;;3.30;;
39018;SDS011;24786;51.984;5.872;2022-10-15T16:10:16;3.88;;;3.20;;
39018;SDS011;24786;51.984;5.872;2022-10-15T16:12:42;4.03;;;3.03;;
39018;SDS011;24786;51.984;5.872;2022-10-15T16:15:08;3.63;;;3.05;;
39018;SDS011;24786;51.984;5.872;2022-10-15T16:17:35;4.05;;;3.10;;
39018;SDS011;24786;51.984;5.872;2022-10-15T16:20:01;3.17;;;2.75;;
39018;SDS011;24786;51.984;5.872;2022-10-15T16:22:27;3.58;;;2.50;;
39018;SDS011;24786;51.984;5.872;2022-10-15T16:24:52;5.38;;;3.17;;
39018;SDS011;24786;51.984;5.872;2022-10-15T16:27:19;3.35;;;2.95;;
39018;SDS011;24786;51.984;5.872;2022-10-15T16:29:44;3.65;;;3.08;;
39018;SDS011;24786;51.984;5.872;2022-10-15T16:32:10;4.03;;;2.83;;
39018;SDS011;24786;51.984;5.872;2022-10-15T16:34:35;2.80;;;2.60;;
39018;SDS011;24786;51.984;5.872;2022-10-15T16:37:01;2.58;;;2.13;;
39018;SDS011;24786;51.984;5.872;2022-10-15T16:39:27;3.80;;;2.70;;
39018;SDS011;24786;51.984;5.872;2022-10-15T16:41:53;2.92;;;1.73;;
39018;SDS011;24786;51.984;5.872;2022-10-15T16:44:19;4.10;;;2.38;;
39018;SDS011;24786;51.984;5.872;2022-10-15T16:46:45;3.17;;;2.30;;
39018;SDS011;24786;51.984;5.872;2022-10-15T16:49:10;2.30;;;1.90;;
39018;SDS011;24786;51.984;5.872;2022-10-15T16:51:36;4.72;;;2.13;;
39018;SDS011;24786;51.984;5.872;2022-10-15T16:54:01;3.17;;;2.22;;
39018;SDS011;24786;51.984;5.872;2022-10-15T16:56:28;4.60;;;2.10;;
39018;SDS011;24786;51.984;5.872;2022-10-15T16:58:54;3.63;;;1.98;;
39018;SDS011;24786;51.984;5.872;2022-10-15T17:01:24;3.53;;;2.00;;
39018;SDS011;24786;51.984;5.872;2022-10-15T17:03:52;2.83;;;2.10;;
39018;SDS011;24786;51.984;5.872;2022-10-15T17:06:19;2.30;;;2.10;;
39018;SDS011;24786;51.984;5.872;2022-10-15T17:08:52;3.60;;;2.08;;
39018;SDS011;24786;51.984;5.872;2022-10-15T17:13:47;4.25;;;2.55;;
39018;SDS011;24786;51.984;5.872;2022-10-15T17:16:22;3.22;;;2.40;;
39018;SDS011;24786;51.984;5.872;2022-10-15T17:18:52;4.50;;;2.72;;